Time;durP1;ratioP1;P1;durP2;ratioP2;P2;SDS_P1;SDS_P2;PMS_P1;PMS_P2;Temp;Humidity;BMP_temperature;BMP_pressure;BME280_temperature;BME280_humidity;BME280_pressure;Samples;Min_cycle;Max_cycle;Signal;HPM_P1;HPM_P2
2024/02/09 00:01:00;;;;;;;7.57;6.50;;;7.70;99.90;;;;;;5039170;28;20021;-36
2024/02/09 00:03:26;;;;;;;8.80;6.43;;;7.70;99.90;;;;;;5038683;28;20542;-34
2024/02/09 00:05:52;;;;;;;8.55;6.65;;;7.80;99.90;;;;;;5039069;28;20029;-38
2024/02/09 00:08:19;;;;;;;7.28;5.85;;;7.80;99.90;;;;;;5039144;28;20121;-32
2024/02/09 00:10:47;;;;;;;11.15;6.43;;;7.80;99.90;;;;;;5038418;28;20041;-35
2024/02/09 00:13:14;;;;;;;6.97;6.07;;;7.90;99.90;;;;;;5038978;28;20560;-32
2024/02/09 00:15:42;;;;;;;9.55;5.78;;;7.90;99.90;;;;;;5039585;28;20025;-35
2024/02/09 00:18:07;;;;;;;8.57;6.25;;;8.00;99.90;;;;;;5038312;28;20111;-36
2024/02/09 00:20:37;;;;;;;9.23;6.30;;;8.00;99.90;;;;;;5039320;28;20033;-36
2024/02/09 00:23:03;;;;;;;10.13;7.15;;;8.00;99.90;;;;;;5033678;28;20021;-35
2024/02/09 00:25:30;;;;;;;9.75;6.53;;;8.00;99.90;;;;;;5038332;28;20108;-36
2024/02/09 00:27:55;;;;;;;8.07;6.63;;;8.00;99.90;;;;;;5038627;28;20472;-37
2024/02/09 00:30:21;;;;;;;9.20;6.93;;;8.10;99.90;;;;;;5039088;28;20037;-37
2024/02/09 00:32:46;;;;;;;8.07;6.45;;;8.10;99.90;;;;;;5038852;28;20025;-35
2024/02/09 00:35:12;;;;;;;10.10;6.18;;;8.10;99.90;;;;;;5039355;28;20033;-35
2024/02/09 00:37:38;;;;;;;7.65;5.90;;;8.10;99.90;;;;;;5039276;28;20056;-35
2024/02/09 00:40:06;;;;;;;6.75;5.50;;;8.20;99.90;;;;;;5038258;28;20056;-36
2024/02/09 00:42:34;;;;;;;8.43;5.68;;;8.20;99.90;;;;;;5038515;28;20028;-37
2024/02/09 00:45:01;;;;;;;5.93;4.85;;;8.30;99.90;;;;;;5038343;28;20025;-37
2024/02/09 00:47:27;;;;;;;5.00;4.45;;;8.30;99.90;;;;;;5036806;28;20036;-35
2024/02/09 00:49:54;;;;;;;6.40;5.22;;;8.30;99.90;;;;;;5037133;28;20527;-36
2024/02/09 00:52:20;;;;;;;7.22;5.28;;;8.30;99.90;;;;;;5039159;28;20025;-34
2024/02/09 00:54:46;;;;;;;5.88;4.43;;;8.30;99.90;;;;;;5040746;28;20435;-37
2024/02/09 00:57:12;;;;;;;8.13;4.60;;;8.30;99.90;;;;;;5040516;28;20094;-36
2024/02/09 00:59:38;;;;;;;6.63;4.93;;;8.40;99.90;;;;;;5040009;28;20047;-36
2024/02/09 01:02:06;;;;;;;8.90;4.60;;;8.40;99.90;;;;;;5041860;28;20025;-35
2024/02/09 01:04:44;;;;;;;5.88;4.07;;;8.50;99.90;;;;;;5042175;28;20025;-34
2024/02/09 01:07:09;;;;;;;8.18;4.32;;;8.50;99.90;;;;;;5041181;28;20353;-34
2024/02/09 01:09:37;;;;;;;5.47;4.10;;;8.60;99.90;;;;;;5022316;28;20112;-33
2024/02/09 02:45:00;;;;;;;5.03;2.58;;;9.80;99.90;;;;;;5038828;28;20790;-36
2024/02/09 02:47:26;;;;;;;4.53;2.50;;;9.90;99.90;;;;;;5039362;28;20033;-37
2024/02/09 03:06:17;;;;;;;3.38;2.30;;;10.00;99.90;;;;;;5036402;28;20657;-36
2024/02/09 03:08:42;;;;;;;6.18;3.40;;;10.00;99.90;;;;;;5039387;28;20033;-35
2024/02/09 03:11:09;;;;;;;4.03;2.20;;;9.90;99.90;;;;;;5039192;28;20045;-36
2024/02/09 03:13:34;;;;;;;5.03;2.35;;;10.00;99.90;;;;;;5038770;28;20120;-34
2024/02/09 03:16:00;;;;;;;3.88;2.42;;;10.00;99.90;;;;;;5039593;28;20032;-38
2024/02/09 03:18:26;;;;;;;4.15;2.55;;;10.00;99.90;;;;;;5039374;28;20036;-34
2024/02/09 03:20:55;;;;;;;2.92;1.80;;;10.00;99.90;;;;;;5038659;28;20124;-36
2024/02/09 03:23:24;;;;;;;5.35;2.40;;;10.00;99.90;;;;;;5039487;28;20377;-34
2024/02/09 03:25:50;;;;;;;3.58;2.10;;;10.00;99.90;;;;;;5039213;28;20025;-37
2024/02/09 03:28:16;;;;;;;2.75;1.90;;;10.00;99.90;;;;;;5037551;28;20045;-37
2024/02/09 03:30:42;;;;;;;4.57;2.00;;;10.00;99.90;;;;;;5039744;28;20032;-37
2024/02/09 03:33:08;;;;;;;2.80;1.60;;;10.00;99.90;;;;;;5039005;28;20550;-37
2024/02/09 03:35:36;;;;;;;3.08;1.90;;;10.00;99.90;;;;;;5039123;28;20033;-39
2024/02/09 03:38:02;;;;;;;3.13;1.67;;;10.10;99.90;;;;;;5039073;28;20037;-36
2024/02/09 03:40:28;;;;;;;2.92;1.90;;;10.10;99.90;;;;;;5038876;28;20036;-35
2024/02/09 03:42:53;;;;;;;4.53;1.90;;;10.10;99.90;;;;;;5038769;28;20017;-34
2024/02/09 03:45:19;;;;;;;3.13;1.98;;;10.10;99.90;;;;;;5038680;28;20033;-36
2024/02/09 03:47:45;;;;;;;3.03;1.48;;;10.10;99.90;;;;;;5038557;28;20033;-37
2024/02/09 03:50:11;;;;;;;4.68;2.25;;;10.10;99.90;;;;;;5038382;28;20469;-37
2024/02/09 03:52:37;;;;;;;3.53;1.60;;;10.10;99.90;;;;;;5039427;28;20561;-37
2024/02/09 03:55:03;;;;;;;4.78;2.00;;;10.10;99.90;;;;;;5039230;28;20610;-35
2024/02/09 03:57:29;;;;;;;3.72;1.83;;;10.10;99.90;;;;;;5039081;28;20051;-35
2024/02/09 03:59:55;;;;;;;2.45;1.83;;;10.10;99.90;;;;;;5039147;28;20029;-33
2024/02/09 04:02:22;;;;;;;3.15;1.85;;;10.20;99.90;;;;;;5038211;28;20032;-33
2024/02/09 04:04:48;;;;;;;2.42;1.60;;;10.10;99.90;;;;;;5040008;28;20028;-35
2024/02/09 04:07:21;;;;;;;4.30;1.73;;;10.10;99.90;;;;;;5037994;28;20060;-32
2024/02/09 04:09:48;;;;;;;2.72;1.80;;;10.10;99.90;;;;;;5038424;28;20029;-33
2024/02/09 04:12:14;;;;;;;5.00;1.90;;;10.20;99.90;;;;;;5038997;28;20393;-39
2024/02/09 04:14:40;;;;;;;3.08;1.70;;;10.20;99.90;;;;;;5039665;28;20574;-35
2024/02/09 04:17:06;;;;;;;4.22;2.38;;;10.20;99.90;;;;;;5038501;28;20146;-35
2024/02/09 04:19:33;;;;;;;3.42;1.70;;;10.20;99.90;;;;;;5038855;28;20058;-36
2024/02/09 04:22:00;;;;;;;3.92;2.53;;;10.20;99.90;;;;;;5038440;28;20038;-37
2024/02/09 04:24:26;;;;;;;2.45;1.80;;;10.20;99.90;;;;;;5038184;28;20029;-37
2024/02/09 04:26:55;;;;;;;2.28;1.80;;;10.20;99.90;;;;;;5040369;28;20813;-35
2024/02/09 04:29:27;;;;;;;2.80;1.80;;;10.20;99.90;;;;;;5041728;28;20025;-38
2024/02/09 04:31:52;;;;;;;3.37;1.73;;;10.20;99.90;;;;;;5041839;28;20071;-37
2024/02/09 04:34:20;;;;;;;2.60;1.70;;;10.20;99.90;;;;;;5042053;28;20111;-37
2024/02/09 04:36:50;;;;;;;3.67;1.67;;;10.20;99.90;;;;;;5040658;28;20102;-36
2024/02/09 04:39:15;;;;;;;3.05;1.77;;;10.20;99.90;;;;;;5041173;28;20115;-35
2024/02/09 04:41:47;;;;;;;4.20;1.85;;;10.30;99.90;;;;;;5043501;28;20025;-37
2024/02/09 04:44:15;;;;;;;2.67;1.63;;;10.30;99.90;;;;;;5042356;28;20031;-35
2024/02/09 04:46:42;;;;;;;4.57;1.98;;;10.30;99.90;;;;;;5041832;28;20159;-36
2024/02/09 04:49:09;;;;;;;2.72;1.63;;;10.30;99.90;;;;;;5041473;28;20025;-35
2024/02/09 04:51:42;;;;;;;2.22;1.63;;;10.30;99.90;;;;;;5041375;28;20053;-37
2024/02/09 04:54:09;;;;;;;2.75;1.67;;;10.30;99.90;;;;;;5042157;28;20025;-38
2024/02/09 04:56:35;;;;;;;4.35;1.75;;;10.30;99.90;;;;;;5043008;28;20056;-38
2024/02/09 04:59:04;;;;;;;1.80;1.63;;;10.30;99.90;;;;;;5041346;28;20542;-37
2024/02/09 05:01:31;;;;;;;1.77;1.33;;;10.30;99.90;;;;;;5042063;28;20071;-38
2024/02/09 05:04:10;;;;;;;3.25;1.50;;;10.30;99.90;;;;;;5041459;28;20044;-38
2024/02/09 05:06:39;;;;;;;2.20;1.33;;;10.30;99.90;;;;;;5041709;28;20130;-37
2024/02/09 05:09:09;;;;;;;3.10;1.58;;;10.30;99.90;;;;;;5041327;28;20021;-38
2024/02/09 05:11:39;;;;;;;2.03;1.65;;;10.30;99.90;;;;;;5041563;28;20033;-36
2024/02/09 05:14:05;;;;;;;2.10;1.50;;;10.30;99.90;;;;;;5041276;28;20025;-35
2024/02/09 05:16:32;;;;;;;2.35;1.85;;;10.30;99.90;;;;;;5030907;28;20074;-37
2024/02/09 05:18:57;;;;;;;3.53;1.48;;;10.30;99.90;;;;;;5042385;28;20048;-38
2024/02/09 05:21:23;;;;;;;1.60;1.35;;;10.40;99.90;;;;;;5041074;28;20119;-37
2024/02/09 05:23:52;;;;;;;2.38;1.30;;;10.40;99.90;;;;;;5042182;28;20025;-38
2024/02/09 05:26:24;;;;;;;1.52;1.20;;;10.40;99.90;;;;;;5040210;28;20021;-38
2024/02/09 05:28:51;;;;;;;2.05;1.40;;;10.40;99.90;;;;;;5040820;28;20036;-38
2024/02/09 05:31:23;;;;;;;1.50;1.17;;;10.40;99.90;;;;;;5040477;28;20059;-36
2024/02/09 05:33:50;;;;;;;2.20;1.50;;;10.40;99.90;;;;;;5041268;28;20124;-37
2024/02/09 05:36:23;;;;;;;1.25;1.15;;;10.40;99.90;;;;;;5041428;28;20055;-37
2024/02/09 05:38:51;;;;;;;2.28;1.10;;;10.50;99.90;;;;;;5042077;28;20028;-35
2024/02/09 05:41:17;;;;;;;1.58;1.00;;;10.40;99.90;;;;;;5040615;28;20147;-37
2024/02/09 05:43:47;;;;;;;1.20;1.10;;;10.40;99.90;;;;;;5041999;28;20605;-36
2024/02/09 05:46:16;;;;;;;1.75;1.10;;;10.50;99.90;;;;;;5041600;28;20067;-36
2024/02/09 05:48:45;;;;;;;1.52;1.20;;;10.40;99.90;;;;;;5041421;28;20116;-37
2024/02/09 05:51:15;;;;;;;2.03;1.83;;;10.50;99.90;;;;;;5041333;28;20045;-38
2024/02/09 05:53:41;;;;;;;1.85;1.25;;;10.40;99.90;;;;;;5041851;28;20475;-37
2024/02/09 05:56:21;;;;;;;1.75;1.30;;;10.50;99.90;;;;;;5040712;28;20017;-37
2024/02/09 05:58:53;;;;;;;2.22;1.15;;;10.50;99.90;;;;;;5041510;28;20082;-34
2024/02/09 06:01:20;;;;;;;1.45;1.25;;;10.50;99.90;;;;;;5040695;28;20021;-36
2024/02/09 06:03:46;;;;;;;1.40;1.30;;;10.50;99.90;;;;;;5041356;28;20033;-35
2024/02/09 06:06:20;;;;;;;1.27;1.05;;;10.50;99.90;;;;;;5040151;28;20149;-37
2024/02/09 06:08:46;;;;;;;2.15;1.23;;;10.50;99.90;;;;;;5041425;28;20060;-36
2024/02/09 06:11:15;;;;;;;2.28;1.20;;;10.50;99.90;;;;;;5039928;28;20116;-34
2024/02/09 06:13:44;;;;;;;2.20;1.27;;;10.50;99.90;;;;;;5040439;28;20127;-35
2024/02/09 06:16:14;;;;;;;1.65;1.10;;;10.50;99.90;;;;;;5039657;28;20021;-36
2024/02/09 06:18:45;;;;;;;1.23;1.02;;;10.50;99.90;;;;;;5040717;28;20029;-35
2024/02/09 06:21:14;;;;;;;1.33;1.10;;;10.50;99.90;;;;;;5041048;28;20024;-37
2024/02/09 06:23:40;;;;;;;1.95;1.40;;;10.60;99.90;;;;;;5040232;28;20811;-35
2024/02/09 06:26:10;;;;;;;2.33;1.45;;;10.50;99.90;;;;;;5040140;28;20487;-36
2024/02/09 06:28:36;;;;;;;2.03;1.35;;;10.50;99.90;;;;;;5040345;28;20032;-37
2024/02/09 06:31:02;;;;;;;3.25;1.40;;;10.50;99.90;;;;;;5040110;28;20132;-37
2024/02/09 06:33:28;;;;;;;4.40;1.35;;;10.60;99.90;;;;;;5040035;28;20025;-38
2024/02/09 06:35:54;;;;;;;1.42;1.00;;;10.60;99.90;;;;;;5039790;28;20025;-39
2024/02/09 06:38:20;;;;;;;2.30;1.30;;;10.60;99.90;;;;;;5039007;28;20109;-35
2024/02/09 06:40:46;;;;;;;1.67;1.17;;;10.60;99.90;;;;;;5040346;28;20037;-38
2024/02/09 06:43:15;;;;;;;2.10;1.20;;;10.60;99.90;;;;;;5039839;28;20098;-36
2024/02/09 06:45:41;;;;;;;1.50;1.20;;;10.60;99.90;;;;;;5039880;28;20035;-36
2024/02/09 06:48:07;;;;;;;2.20;1.27;;;10.60;99.90;;;;;;5039814;28;20136;-37
2024/02/09 06:50:34;;;;;;;1.10;1.00;;;10.60;99.90;;;;;;5039416;28;20036;-33
2024/02/09 06:53:01;;;;;;;3.03;1.50;;;10.60;99.90;;;;;;5039364;28;20028;-35
2024/02/09 06:55:27;;;;;;;1.70;1.40;;;10.60;99.90;;;;;;5039721;28;20132;-35
2024/02/09 06:57:52;;;;;;;2.03;1.30;;;10.60;99.90;;;;;;5039181;28;20037;-35
2024/02/09 07:00:19;;;;;;;2.47;1.40;;;10.60;99.90;;;;;;5039142;28;20033;-36
2024/02/09 07:02:45;;;;;;;1.23;0.90;;;10.60;99.90;;;;;;5039385;28;20024;-36
2024/02/09 07:05:14;;;;;;;2.42;1.33;;;10.60;99.90;;;;;;5038427;28;20040;-38
2024/02/09 07:07:49;;;;;;;1.52;1.00;;;10.60;99.90;;;;;;5039131;28;20518;-38
2024/02/09 07:10:22;;;;;;;1.73;1.30;;;10.60;99.90;;;;;;5039165;28;20029;-34
2024/02/09 07:12:48;;;;;;;1.92;1.00;;;10.60;99.90;;;;;;5039508;28;20056;-36
2024/02/09 07:15:14;;;;;;;3.03;1.33;;;10.60;99.90;;;;;;5039582;28;20017;-38
2024/02/09 07:17:40;;;;;;;1.77;1.23;;;10.60;99.90;;;;;;5040245;28;20039;-38
2024/02/09 07:20:06;;;;;;;1.45;1.15;;;10.60;99.90;;;;;;5039623;28;20029;-35
2024/02/09 07:22:35;;;;;;;2.35;1.40;;;10.60;99.90;;;;;;5039359;28;20032;-34
2024/02/09 07:25:03;;;;;;;1.83;1.33;;;10.60;99.90;;;;;;5039065;28;20025;-37
2024/02/09 07:27:29;;;;;;;2.88;1.42;;;10.60;99.90;;;;;;5038798;28;20048;-36
2024/02/09 07:29:56;;;;;;;4.10;1.35;;;10.70;99.90;;;;;;5038984;28;20135;-36
2024/02/09 07:32:22;;;;;;;3.55;1.50;;;10.60;99.90;;;;;;5019302;28;20036;-36
2024/02/09 07:34:48;;;;;;;1.80;1.45;;;10.60;99.90;;;;;;5033005;28;20017;-37
2024/02/09 07:37:17;;;;;;;1.88;1.40;;;10.70;99.90;;;;;;5039290;28;20025;-36
2024/02/09 07:39:42;;;;;;;1.88;1.30;;;10.70;99.90;;;;;;5039230;28;20031;-34
2024/02/09 07:42:08;;;;;;;1.65;1.48;;;10.70;99.90;;;;;;5038766;28;20029;-33
2024/02/09 07:44:36;;;;;;;2.13;1.52;;;10.70;99.90;;;;;;5038969;28;20409;-36
2024/02/09 07:47:04;;;;;;;1.58;1.35;;;10.70;99.90;;;;;;5039158;28;20036;-37
2024/02/09 07:49:31;;;;;;;3.17;1.30;;;10.70;99.90;;;;;;5037719;28;20052;-37
2024/02/09 07:51:58;;;;;;;1.92;1.30;;;10.70;99.90;;;;;;5038588;28;20029;-36
2024/02/09 07:54:26;;;;;;;1.45;1.17;;;10.70;99.90;;;;;;5038235;28;20013;-34
2024/02/09 07:57:01;;;;;;;2.58;1.52;;;10.70;99.90;;;;;;5039070;28;20028;-35
2024/02/09 07:59:26;;;;;;;1.70;1.10;;;10.80;99.90;;;;;;5039388;28;20044;-38
2024/02/09 08:01:53;;;;;;;2.10;1.20;;;10.80;99.90;;;;;;5040482;28;20456;-35
2024/02/09 08:04:19;;;;;;;2.03;1.10;;;10.80;99.90;;;;;;5042552;28;20965;-35
2024/02/09 08:06:45;;;;;;;1.92;1.40;;;10.80;99.90;;;;;;5043148;28;20530;-36
2024/02/09 08:09:11;;;;;;;2.58;1.60;;;10.80;99.90;;;;;;5042486;28;20111;-35
2024/02/09 08:11:38;;;;;;;3.03;1.50;;;10.80;99.90;;;;;;5042619;28;20123;-36
2024/02/09 08:14:04;;;;;;;1.77;1.17;;;10.80;99.90;;;;;;5042904;28;20028;-38
2024/02/09 08:16:33;;;;;;;1.60;1.20;;;10.80;99.90;;;;;;5041794;28;20024;-37
2024/02/09 08:18:59;;;;;;;1.38;1.08;;;10.80;99.90;;;;;;5043161;28;20480;-34
2024/02/09 08:21:25;;;;;;;1.25;0.98;;;10.80;99.90;;;;;;5042992;28;20078;-34
2024/02/09 08:23:57;;;;;;;2.22;1.27;;;10.80;99.90;;;;;;5042595;28;20443;-38
2024/02/09 08:26:22;;;;;;;2.42;1.17;;;10.80;99.90;;;;;;5042908;28;20021;-37
2024/02/09 08:28:48;;;;;;;2.35;1.45;;;10.80;99.90;;;;;;5043556;28;20771;-34
2024/02/09 08:31:15;;;;;;;4.07;1.63;;;10.80;99.90;;;;;;5041602;28;20068;-34
2024/02/09 08:33:43;;;;;;;2.20;1.20;;;10.80;99.90;;;;;;5043437;28;20031;-36
2024/02/09 08:36:11;;;;;;;1.40;1.30;;;10.90;99.90;;;;;;5043013;28;20036;-34
2024/02/09 08:38:37;;;;;;;1.42;1.15;;;10.90;99.90;;;;;;5041956;28;20482;-33
2024/02/09 08:41:07;;;;;;;2.63;1.58;;;10.90;99.90;;;;;;5042954;28;20032;-35
2024/02/09 08:43:33;;;;;;;2.63;1.67;;;10.90;99.90;;;;;;5041856;28;20025;-34
2024/02/09 08:45:58;;;;;;;1.85;1.55;;;10.90;99.90;;;;;;5042883;28;20104;-36
2024/02/09 08:48:24;;;;;;;2.38;1.40;;;11.00;99.90;;;;;;5041848;28;20473;-37
2024/02/09 08:50:50;;;;;;;2.58;1.63;;;11.00;99.90;;;;;;5041453;28;20395;-39
2024/02/09 08:53:16;;;;;;;3.70;1.83;;;11.00;99.90;;;;;;5041840;28;20025;-35
2024/02/09 08:55:42;;;;;;;2.05;1.30;;;11.00;99.90;;;;;;5042904;28;20017;-37
2024/02/09 08:58:08;;;;;;;2.72;1.92;;;11.10;99.90;;;;;;5041025;28;20037;-38
2024/02/09 09:00:33;;;;;;;2.00;1.23;;;11.10;99.90;;;;;;5042696;28;20579;-39
2024/02/09 09:02:59;;;;;;;1.98;1.20;;;11.10;99.90;;;;;;5041938;28;20037;-37
2024/02/09 09:05:28;;;;;;;1.73;1.38;;;11.20;99.90;;;;;;5041625;28;20028;-36
2024/02/09 09:07:54;;;;;;;1.65;1.20;;;11.20;99.90;;;;;;5041388;28;20044;-37
2024/02/09 09:10:20;;;;;;;1.75;1.30;;;11.20;99.90;;;;;;5042084;28;20037;-36
2024/02/09 09:12:46;;;;;;;1.90;1.40;;;11.20;99.90;;;;;;5040808;28;20055;-37
2024/02/09 09:15:12;;;;;;;1.33;1.15;;;11.30;99.90;;;;;;5041539;28;20108;-36
2024/02/09 09:17:38;;;;;;;1.63;1.40;;;11.30;99.90;;;;;;5041539;28;20032;-37
2024/02/09 09:20:05;;;;;;;2.72;1.70;;;11.40;99.90;;;;;;5041166;28;20044;-37
2024/02/09 09:22:31;;;;;;;1.70;1.23;;;11.40;99.90;;;;;;5042111;28;20031;-36
2024/02/09 09:24:57;;;;;;;2.75;1.63;;;11.50;99.90;;;;;;5042300;28;20017;-37
2024/02/09 09:27:23;;;;;;;4.55;1.90;;;11.70;99.90;;;;;;5040630;28;20025;-35
2024/02/09 09:29:52;;;;;;;1.48;1.38;;;11.80;99.90;;;;;;5041830;28;20016;-40
2024/02/09 09:32:22;;;;;;;4.40;2.08;;;11.90;99.90;;;;;;5040663;28;20056;-36
2024/02/09 09:34:48;;;;;;;2.40;1.45;;;11.90;99.90;;;;;;5041023;28;20025;-36
2024/02/09 09:37:14;;;;;;;4.10;1.60;;;11.90;99.90;;;;;;5041883;28;20025;-35
2024/02/09 09:39:39;;;;;;;3.05;1.90;;;11.80;99.90;;;;;;5040885;28;20032;-36
2024/02/09 09:42:08;;;;;;;2.75;1.90;;;11.80;99.90;;;;;;5041194;28;20240;-37
2024/02/09 09:44:33;;;;;;;2.05;1.48;;;11.70;99.90;;;;;;5040692;28;20033;-39
2024/02/09 09:46:59;;;;;;;3.20;1.80;;;11.70;99.90;;;;;;5041243;28;20028;-33
2024/02/09 09:49:28;;;;;;;2.60;1.38;;;11.70;99.90;;;;;;5041864;28;20039;-36
2024/02/09 09:51:58;;;;;;;1.73;1.30;;;11.70;99.90;;;;;;5040117;28;20040;-37
2024/02/09 09:54:28;;;;;;;2.05;1.40;;;11.70;99.90;;;;;;5039977;28;20033;-37
2024/02/09 09:56:54;;;;;;;1.42;1.33;;;11.70;99.90;;;;;;5041458;28;20029;-36
2024/02/09 09:59:20;;;;;;;3.55;1.48;;;11.70;99.90;;;;;;5041730;28;20031;-36
2024/02/09 10:01:49;;;;;;;1.85;1.35;;;11.70;99.90;;;;;;5040079;28;20499;-38
2024/02/09 10:04:15;;;;;;;1.90;1.40;;;11.70;99.90;;;;;;5040464;28;20021;-37
2024/02/09 10:06:42;;;;;;;3.20;1.45;;;11.70;99.90;;;;;;5041328;28;20049;-36
2024/02/09 10:09:12;;;;;;;1.48;1.10;;;11.70;99.90;;;;;;5040068;28;20021;-34
2024/02/09 10:11:40;;;;;;;2.65;1.40;;;11.80;99.90;;;;;;5041183;28;20037;-37
2024/02/09 10:14:14;;;;;;;2.25;1.48;;;11.80;99.90;;;;;;5040132;28;20163;-36
2024/02/09 10:16:44;;;;;;;1.38;1.17;;;11.80;99.90;;;;;;5028585;28;20029;-36
2024/02/09 10:19:13;;;;;;;2.10;1.40;;;11.80;99.90;;;;;;5039441;28;20172;-37
2024/02/09 10:21:39;;;;;;;2.53;1.23;;;11.90;99.90;;;;;;5040724;28;20032;-36
2024/02/09 10:24:09;;;;;;;2.05;1.08;;;12.00;99.90;;;;;;5037599;28;20700;-35
2024/02/09 10:26:36;;;;;;;1.95;1.48;;;12.10;99.90;;;;;;5038827;28;20132;-34
2024/02/09 10:29:03;;;;;;;1.80;1.40;;;12.10;99.90;;;;;;5037907;28;20541;-35
2024/02/09 10:31:30;;;;;;;1.67;1.58;;;12.10;99.90;;;;;;5039482;28;20033;-36
2024/02/09 10:33:56;;;;;;;2.75;1.30;;;12.20;99.90;;;;;;5040466;28;20576;-35
2024/02/09 10:36:23;;;;;;;2.40;1.40;;;12.20;99.90;;;;;;5039157;28;20029;-37
2024/02/09 10:38:49;;;;;;;2.55;1.60;;;12.20;99.90;;;;;;5040126;28;20052;-35
2024/02/09 10:41:17;;;;;;;1.98;1.65;;;12.10;99.90;;;;;;5039765;28;20131;-35
2024/02/09 10:43:48;;;;;;;1.95;1.33;;;12.20;99.90;;;;;;5039390;28;20512;-36
2024/02/09 10:46:19;;;;;;;1.50;1.20;;;12.10;99.90;;;;;;5039907;28;20490;-37
2024/02/09 10:48:48;;;;;;;2.42;1.20;;;12.10;99.90;;;;;;5040077;28;20025;-36
2024/02/09 10:51:16;;;;;;;1.73;1.40;;;12.20;99.90;;;;;;5038986;28;20482;-37
2024/02/09 10:53:56;;;;;;;3.20;1.65;;;12.10;99.90;;;;;;5038240;28;20113;-36
2024/02/09 10:56:27;;;;;;;2.65;1.55;;;12.20;99.90;;;;;;5039487;28;20146;-34
2024/02/09 10:58:55;;;;;;;1.83;1.30;;;12.10;99.90;;;;;;5039712;28;20017;-33
2024/02/09 11:01:22;;;;;;;2.22;1.50;;;12.10;99.90;;;;;;5039654;28;20435;-34
2024/02/09 11:03:49;;;;;;;3.70;1.67;;;12.10;99.90;;;;;;5040423;28;20055;-37
2024/02/09 11:06:14;;;;;;;1.85;1.20;;;12.10;99.90;;;;;;5038703;28;20472;-37
2024/02/09 11:08:41;;;;;;;1.45;1.25;;;12.10;99.90;;;;;;5039998;28;20812;-35
2024/02/09 11:11:12;;;;;;;2.90;1.25;;;12.10;99.90;;;;;;5039277;28;20116;-35
2024/02/09 11:13:39;;;;;;;1.90;1.58;;;12.10;99.90;;;;;;5039670;28;20159;-33
2024/02/09 11:16:07;;;;;;;1.70;1.30;;;12.10;99.90;;;;;;5039466;28;20017;-36
2024/02/09 11:18:37;;;;;;;1.75;1.33;;;12.10;99.90;;;;;;5046180;28;20031;-36
2024/02/09 11:21:02;;;;;;;1.60;1.50;;;12.10;99.90;;;;;;5056333;28;20036;-36
2024/02/09 11:23:31;;;;;;;2.95;1.30;;;12.10;99.90;;;;;;5039215;28;20017;-37
2024/02/09 11:25:58;;;;;;;2.20;1.20;;;12.10;99.90;;;;;;5038605;28;20032;-35
2024/02/09 11:28:36;;;;;;;1.58;1.30;;;12.10;99.90;;;;;;5038642;28;20025;-37
2024/02/09 11:31:04;;;;;;;2.92;1.33;;;12.10;99.90;;;;;;5039731;28;20044;-34
2024/02/09 11:33:29;;;;;;;1.67;1.33;;;12.10;99.90;;;;;;5038499;28;20109;-37
2024/02/09 11:35:55;;;;;;;4.03;1.60;;;12.20;99.90;;;;;;5039510;28;20029;-36
2024/02/09 11:38:21;;;;;;;2.20;1.30;;;12.30;99.90;;;;;;5038889;28;20407;-36
2024/02/09 11:40:51;;;;;;;3.33;1.13;;;12.40;99.90;;;;;;5038713;28;20086;-35
2024/02/09 11:43:17;;;;;;;2.80;1.25;;;12.50;99.90;;;;;;5039026;28;20036;-33
2024/02/09 11:45:44;;;;;;;2.67;1.30;;;12.60;99.90;;;;;;5039049;28;20021;-35
2024/02/09 11:48:11;;;;;;;1.65;1.40;;;12.70;99.90;;;;;;5038264;28;20449;-36
2024/02/09 11:50:39;;;;;;;2.08;1.20;;;12.70;99.90;;;;;;5038858;28;20044;-35
2024/02/09 11:53:07;;;;;;;2.13;1.17;;;12.70;99.90;;;;;;5038604;28;20065;-37
2024/02/09 11:55:32;;;;;;;4.55;1.85;;;12.80;99.90;;;;;;5038735;28;20029;-33
2024/02/09 11:57:59;;;;;;;2.85;1.48;;;12.90;99.90;;;;;;5038659;28;20028;-37
2024/02/09 12:00:28;;;;;;;3.03;1.27;;;12.90;99.90;;;;;;5038535;28;20577;-36
2024/02/09 12:02:54;;;;;;;2.55;1.70;;;13.00;99.90;;;;;;5038385;28;20025;-35
2024/02/09 12:05:20;;;;;;;4.05;1.30;;;13.10;99.90;;;;;;5039020;28;20039;-37
2024/02/09 12:07:46;;;;;;;3.20;1.60;;;13.10;99.90;;;;;;5038084;28;20041;-35
2024/02/09 12:10:11;;;;;;;3.70;1.63;;;13.10;99.90;;;;;;5039000;28;20450;-36
2024/02/09 12:12:37;;;;;;;2.65;1.40;;;13.20;99.90;;;;;;5038656;28;20035;-35
2024/02/09 12:15:03;;;;;;;2.22;1.40;;;13.30;99.90;;;;;;5033767;28;20028;-36
2024/02/09 12:17:30;;;;;;;3.33;1.60;;;13.30;99.90;;;;;;5039001;28;20121;-37
2024/02/09 12:20:08;;;;;;;1.95;1.70;;;13.30;99.90;;;;;;5038994;28;20029;-37
2024/02/09 12:22:37;;;;;;;4.47;1.70;;;13.40;99.90;;;;;;5038868;28;20029;-36
2024/02/09 12:25:06;;;;;;;2.10;1.38;;;13.40;99.90;;;;;;5038352;28;20793;-34
2024/02/09 12:27:32;;;;;;;2.75;1.90;;;13.50;99.90;;;;;;5039029;28;20112;-37
2024/02/09 12:29:58;;;;;;;3.60;1.83;;;13.50;99.90;;;;;;5037634;28;20029;-36
2024/02/09 12:32:23;;;;;;;1.80;1.40;;;13.50;99.90;;;;;;5038549;28;20111;-37
2024/02/09 12:34:52;;;;;;;1.95;1.60;;;13.50;99.90;;;;;;5038048;28;20767;-36
2024/02/09 12:37:20;;;;;;;2.20;1.50;;;13.50;99.90;;;;;;5037420;28;20563;-37
2024/02/09 12:39:55;;;;;;;2.25;1.27;;;13.50;99.90;;;;;;5038537;28;20021;-34
2024/02/09 12:42:23;;;;;;;1.98;1.17;;;13.60;99.90;;;;;;5038129;28;20025;-37
2024/02/09 12:44:50;;;;;;;1.27;1.13;;;13.60;99.90;;;;;;5035918;28;20111;-34
2024/02/09 12:47:16;;;;;;;1.70;1.30;;;13.60;99.90;;;;;;5036496;28;20035;-35
2024/02/09 12:49:43;;;;;;;2.03;1.40;;;13.60;99.90;;;;;;5039216;28;20029;-36
2024/02/09 12:52:14;;;;;;;1.70;1.15;;;13.60;99.90;;;;;;5040808;28;20040;-37
2024/02/09 12:54:40;;;;;;;3.45;1.30;;;13.50;99.90;;;;;;5041950;28;20052;-36
2024/02/09 12:57:06;;;;;;;1.98;1.40;;;13.50;99.90;;;;;;5041705;28;20028;-36
2024/02/09 12:59:34;;;;;;;1.80;1.30;;;13.50;99.90;;;;;;5042448;28;20036;-32
2024/02/09 13:02:01;;;;;;;2.92;1.20;;;13.50;99.90;;;;;;5042536;28;20655;-36
2024/02/09 13:04:27;;;;;;;3.10;1.35;;;13.40;99.90;;;;;;5041600;28;20033;-35
2024/02/09 13:06:53;;;;;;;1.30;1.15;;;13.40;99.90;;;;;;5041789;28;20049;-36
2024/02/09 13:09:18;;;;;;;2.90;2.22;;;13.40;99.90;;;;;;5041630;28;20395;-36
2024/02/09 13:11:51;;;;;;;1.98;1.30;;;13.40;99.90;;;;;;5040936;28;20037;-36
2024/02/09 13:14:19;;;;;;;1.17;1.02;;;13.40;99.90;;;;;;5042389;28;20029;-34
2024/02/09 13:16:48;;;;;;;3.60;1.20;;;13.40;99.90;;;;;;5042132;28;20111;-34
2024/02/09 13:19:18;;;;;;;1.67;1.33;;;13.40;99.90;;;;;;5041589;28;20039;-37
2024/02/09 13:22:01;;;;;;;0.82;0.82;;;13.40;99.90;;;;;;5042599;28;20487;-36
2024/02/09 13:24:27;;;;;;;2.13;1.10;;;13.40;99.90;;;;;;5041733;28;20097;-35
2024/02/09 13:26:54;;;;;;;2.35;1.33;;;13.40;99.90;;;;;;5039676;28;20059;-37
2024/02/09 13:29:26;;;;;;;2.38;1.10;;;13.40;99.90;;;;;;5041150;28;20052;-36
2024/02/09 13:31:54;;;;;;;1.63;1.02;;;13.40;99.90;;;;;;5041374;28;20840;-36
2024/02/09 13:34:21;;;;;;;1.50;0.95;;;13.40;99.90;;;;;;5041591;28;20120;-38
2024/02/09 13:36:47;;;;;;;1.10;1.00;;;13.40;99.90;;;;;;5041327;28;20468;-37
2024/02/09 13:39:14;;;;;;;2.47;1.20;;;13.40;99.90;;;;;;5041095;28;20021;-37
2024/02/09 13:41:42;;;;;;;1.65;1.00;;;13.50;99.90;;;;;;5040591;28;20430;-42
2024/02/09 13:44:08;;;;;;;1.55;1.00;;;13.40;99.90;;;;;;5040797;28;20028;-36
2024/02/09 13:46:33;;;;;;;2.95;1.00;;;13.40;99.90;;;;;;5040915;28;20025;-33
2024/02/09 13:48:59;;;;;;;1.67;1.10;;;13.50;99.90;;;;;;5040781;28;20033;-36
2024/02/09 13:51:29;;;;;;;4.32;1.23;;;13.50;99.90;;;;;;5040954;28;20036;-34
2024/02/09 13:54:00;;;;;;;2.25;1.20;;;13.50;99.90;;;;;;5040699;28;20060;-38
2024/02/09 13:56:26;;;;;;;3.08;1.35;;;13.50;99.90;;;;;;5041002;28;20058;-37
2024/02/09 13:58:52;;;;;;;2.05;1.20;;;13.50;99.90;;;;;;5039210;28;20066;-37
2024/02/09 14:01:18;;;;;;;3.53;1.38;;;13.40;99.90;;;;;;5039144;28;20028;-35
2024/02/09 14:03:44;;;;;;;2.33;1.85;;;13.40;99.90;;;;;;5041057;28;20016;-36
2024/02/09 14:06:13;;;;;;;2.10;1.00;;;13.40;99.90;;;;;;5040801;28;20036;-37
2024/02/09 14:08:40;;;;;;;3.10;1.33;;;13.40;99.90;;;;;;5037850;28;20037;-35
2024/02/09 14:11:05;;;;;;;1.25;1.08;;;13.40;99.90;;;;;;5039710;28;20735;-31
2024/02/09 14:13:31;;;;;;;3.58;1.25;;;13.40;99.90;;;;;;5039970;28;20021;-37
2024/02/09 14:15:58;;;;;;;1.83;1.10;;;13.40;99.90;;;;;;5039173;28;20589;-37
2024/02/09 14:18:24;;;;;;;2.50;1.30;;;13.40;99.90;;;;;;5040271;28;20038;-32
2024/02/09 14:20:50;;;;;;;1.20;1.10;;;13.40;99.90;;;;;;5038878;28;20422;-34
2024/02/09 14:23:16;;;;;;;2.22;1.20;;;13.50;99.90;;;;;;5038387;28;20049;-33
2024/02/09 14:25:44;;;;;;;1.70;1.10;;;13.40;99.90;;;;;;5040476;28;20112;-34
2024/02/09 14:28:10;;;;;;;2.80;1.30;;;13.40;99.90;;;;;;5039708;28;20493;-35
2024/02/09 14:30:36;;;;;;;2.55;1.42;;;13.40;99.90;;;;;;5040524;28;20159;-32
2024/02/09 14:33:03;;;;;;;2.55;1.33;;;13.40;99.90;;;;;;5039797;28;20033;-33
2024/02/09 14:35:32;;;;;;;1.52;1.20;;;13.40;99.90;;;;;;5039006;28;20523;-39
2024/02/09 14:38:00;;;;;;;1.48;1.10;;;13.40;99.90;;;;;;5040043;28;20434;-35